sensor_id;sensor_type;location;lat;lon;timestamp;pressure;altitude;pressure_sealevel;temperature;humidity
2563;BME280;1291;51.420;6.970;2022-09-09T00:00:40;99269.09;;;45.13;11.43
2563;BME280;1291;51.420;6.970;2022-09-09T00:03:16;99266.13;;;46.85;10.48
2563;BME280;1291;51.420;6.970;2022-09-09T00:06:18;99269.91;;;46.17;10.98
2563;BME280;1291;51.420;6.970;2022-09-09T00:09:00;99263.78;;;46.08;10.82
2563;BME280;1291;51.420;6.970;2022-09-09T00:11:43;99266.72;;;45.10;11.42
2563;BME280;1291;51.420;6.970;2022-09-09T00:20:01;99269.09;;;44.57;12.08
2563;BME280;1291;51.420;6.970;2022-09-09T00:22:29;99270.03;;;45.82;10.87
2563;BME280;1291;51.420;6.970;2022-09-09T00:25:08;99264.63;;;46.09;10.50
2563;BME280;1291;51.420;6.970;2022-09-09T00:27:47;99268.88;;;46.31;10.13
2563;BME280;1291;51.420;6.970;2022-09-09T00:30:34;99271.13;;;46.01;10.84
2563;BME280;1291;51.420;6.970;2022-09-09T00:33:05;99273.41;;;45.36;10.90
2563;BME280;1291;51.420;6.970;2022-09-09T00:35:48;99274.50;;;45.07;11.21
2563;BME280;1291;51.420;6.970;2022-09-09T00:38:31;99267.25;;;45.69;10.94
2563;BME280;1291;51.420;6.970;2022-09-09T00:43:37;99258.03;;;45.96;10.72
2563;BME280;1291;51.420;6.970;2022-09-09T00:49:28;99256.38;;;46.22;10.30
2563;BME280;1291;51.420;6.970;2022-09-09T00:54:33;99258.31;;;46.55;10.56
2563;BME280;1291;51.420;6.970;2022-09-09T01:09:02;99261.81;;;47.15;9.86
2563;BME280;1291;51.420;6.970;2022-09-09T01:17:53;99258.09;;;46.30;10.72
2563;BME280;1291;51.420;6.970;2022-09-09T01:27:35;99239.94;;;46.62;10.16
2563;BME280;1291;51.420;6.970;2022-09-09T01:30:09;99253.91;;;45.59;11.15
2563;BME280;1291;51.420;6.970;2022-09-09T01:32:50;99249.41;;;46.93;9.94
2563;BME280;1291;51.420;6.970;2022-09-09T01:37:59;99248.38;;;46.81;9.95
2563;BME280;1291;51.420;6.970;2022-09-09T01:40:25;99248.06;;;47.15;10.19
2563;BME280;1291;51.420;6.970;2022-09-09T01:42:52;99247.50;;;47.07;10.51
2563;BME280;1291;51.420;6.970;2022-09-09T01:45:18;99248.50;;;45.79;11.17
2563;BME280;1291;51.420;6.970;2022-09-09T01:47:45;99245.22;;;46.84;10.19
2563;BME280;1291;51.420;6.970;2022-09-09T01:50:13;99240.56;;;46.37;10.72
2563;BME280;1291;51.420;6.970;2022-09-09T01:52:40;99240.13;;;46.14;10.51
2563;BME280;1291;51.420;6.970;2022-09-09T01:55:07;99237.81;;;46.04;10.69
2563;BME280;1291;51.420;6.970;2022-09-09T01:57:50;99237.59;;;46.86;10.07
2563;BME280;1291;51.420;6.970;2022-09-09T02:00:20;99236.97;;;46.84;10.23
2563;BME280;1291;51.420;6.970;2022-09-09T02:03:06;99234.41;;;46.89;10.12
2563;BME280;1291;51.420;6.970;2022-09-09T02:06:21;99236.06;;;47.03;9.81
2563;BME280;1291;51.420;6.970;2022-09-09T02:08:56;99240.94;;;45.94;10.41
2563;BME280;1291;51.420;6.970;2022-09-09T02:11:24;99240.72;;;47.03;10.00
2563;BME280;1291;51.420;6.970;2022-09-09T02:13:53;99239.44;;;47.19;9.70
2563;BME280;1291;51.420;6.970;2022-09-09T02:16:39;99234.03;;;46.39;10.42
2563;BME280;1291;51.420;6.970;2022-09-09T02:19:32;99236.97;;;46.37;10.51
2563;BME280;1291;51.420;6.970;2022-09-09T02:21:59;99239.88;;;47.02;9.67
2563;BME280;1291;51.420;6.970;2022-09-09T02:24:28;99246.13;;;45.63;10.91
2563;BME280;1291;51.420;6.970;2022-09-09T02:26:57;99243.72;;;46.28;10.65
2563;BME280;1291;51.420;6.970;2022-09-09T02:29:42;99234.88;;;46.39;10.36
2563;BME280;1291;51.420;6.970;2022-09-09T02:32:14;99235.72;;;46.53;10.52
2563;BME280;1291;51.420;6.970;2022-09-09T02:34:43;99237.84;;;46.51;10.36
2563;BME280;1291;51.420;6.970;2022-09-09T02:37:11;99242.25;;;46.65;10.24
2563;BME280;1291;51.420;6.970;2022-09-09T02:39:37;99243.56;;;46.56;10.49
2563;BME280;1291;51.420;6.970;2022-09-09T02:42:04;99245.41;;;46.22;10.85
2563;BME280;1291;51.420;6.970;2022-09-09T02:44:29;99246.66;;;46.73;10.64
2563;BME280;1291;51.420;6.970;2022-09-09T02:49:40;99253.53;;;43.41;13.23
2563;BME280;1291;51.420;6.970;2022-09-09T02:52:14;99244.63;;;45.12;12.01
2563;BME280;1291;51.420;6.970;2022-09-09T02:54:43;99247.94;;;46.90;10.23
2563;BME280;1291;51.420;6.970;2022-09-09T02:57:22;99238.66;;;46.78;10.95
2563;BME280;1291;51.420;6.970;2022-09-09T02:59:51;99235.91;;;46.71;10.69
2563;BME280;1291;51.420;6.970;2022-09-09T03:02:18;99234.22;;;46.37;11.07
2563;BME280;1291;51.420;6.970;2022-09-09T03:04:46;99233.41;;;46.23;11.30
2563;BME280;1291;51.420;6.970;2022-09-09T03:07:16;99244.69;;;45.73;11.75
2563;BME280;1291;51.420;6.970;2022-09-09T03:09:42;99227.28;;;46.48;10.91
2563;BME280;1291;51.420;6.970;2022-09-09T03:12:08;99239.44;;;45.98;11.22
2563;BME280;1291;51.420;6.970;2022-09-09T03:14:36;99232.69;;;46.94;10.66
2563;BME280;1291;51.420;6.970;2022-09-09T03:17:04;99231.94;;;46.21;10.98
2563;BME280;1291;51.420;6.970;2022-09-09T03:19:30;99228.75;;;46.30;10.97
2563;BME280;1291;51.420;6.970;2022-09-09T03:21:59;99228.91;;;45.95;11.21
2563;BME280;1291;51.420;6.970;2022-09-09T03:24:25;99228.75;;;46.24;11.29
2563;BME280;1291;51.420;6.970;2022-09-09T03:26:51;99226.78;;;45.84;11.54
2563;BME280;1291;51.420;6.970;2022-09-09T03:29:19;99232.34;;;46.64;10.46
2563;BME280;1291;51.420;6.970;2022-09-09T03:31:45;99225.53;;;46.80;10.64
2563;BME280;1291;51.420;6.970;2022-09-09T03:34:10;99225.94;;;46.77;10.45
2563;BME280;1291;51.420;6.970;2022-09-09T03:36:36;99224.75;;;46.46;10.63
2563;BME280;1291;51.420;6.970;2022-09-09T03:39:02;99220.53;;;46.50;10.63
2563;BME280;1291;51.420;6.970;2022-09-09T03:41:29;99226.50;;;45.11;11.50
2563;BME280;1291;51.420;6.970;2022-09-09T03:43:54;99223.03;;;46.65;10.30
2563;BME280;1291;51.420;6.970;2022-09-09T03:46:21;99232.69;;;44.56;12.28
2563;BME280;1291;51.420;6.970;2022-09-09T03:48:48;99229.81;;;44.71;12.25
2563;BME280;1291;51.420;6.970;2022-09-09T03:51:13;99223.41;;;46.02;10.76
2563;BME280;1291;51.420;6.970;2022-09-09T03:53:44;99220.78;;;45.12;11.82
2563;BME280;1291;51.420;6.970;2022-09-09T03:56:10;99220.31;;;45.37;11.68
2563;BME280;1291;51.420;6.970;2022-09-09T03:58:36;99216.69;;;46.05;10.97
2563;BME280;1291;51.420;6.970;2022-09-09T04:01:10;99224.69;;;46.00;10.83
2563;BME280;1291;51.420;6.970;2022-09-09T04:03:38;99222.13;;;45.85;10.97
2563;BME280;1291;51.420;6.970;2022-09-09T04:06:05;99227.66;;;45.30;11.68
2563;BME280;1291;51.420;6.970;2022-09-09T04:08:33;99230.16;;;44.33;12.28
2563;BME280;1291;51.420;6.970;2022-09-09T04:11:00;99223.25;;;46.17;10.95
2563;BME280;1291;51.420;6.970;2022-09-09T04:13:27;99215.84;;;46.37;10.56
2563;BME280;1291;51.420;6.970;2022-09-09T04:15:54;99224.94;;;44.38;12.09
2563;BME280;1291;51.420;6.970;2022-09-09T04:18:21;99215.66;;;46.19;10.57
2563;BME280;1291;51.420;6.970;2022-09-09T04:20:47;99220.34;;;45.50;11.07
2563;BME280;1291;51.420;6.970;2022-09-09T04:23:14;99217.13;;;46.55;10.64
2563;BME280;1291;51.420;6.970;2022-09-09T04:25:50;99226.63;;;45.31;11.47
2563;BME280;1291;51.420;6.970;2022-09-09T04:28:17;99221.41;;;45.08;11.50
2563;BME280;1291;51.420;6.970;2022-09-09T04:30:46;99231.09;;;44.47;12.14
2563;BME280;1291;51.420;6.970;2022-09-09T04:33:12;99219.22;;;46.26;10.98
2563;BME280;1291;51.420;6.970;2022-09-09T04:35:39;99219.22;;;46.80;10.35
2563;BME280;1291;51.420;6.970;2022-09-09T04:38:05;99232.97;;;46.33;10.61
2563;BME280;1291;51.420;6.970;2022-09-09T04:40:35;99237.59;;;44.18;12.35
2563;BME280;1291;51.420;6.970;2022-09-09T04:43:01;99228.31;;;44.97;11.63
2563;BME280;1291;51.420;6.970;2022-09-09T04:45:28;99229.38;;;46.19;11.25
2563;BME280;1291;51.420;6.970;2022-09-09T04:47:54;99226.41;;;46.27;10.87
2563;BME280;1291;51.420;6.970;2022-09-09T04:50:23;99219.66;;;46.36;10.71
2563;BME280;1291;51.420;6.970;2022-09-09T04:52:48;99232.16;;;44.74;12.13
2563;BME280;1291;51.420;6.970;2022-09-09T04:55:17;99235.69;;;44.18;12.17
2563;BME280;1291;51.420;6.970;2022-09-09T04:57:42;99227.34;;;45.18;11.45
2563;BME280;1291;51.420;6.970;2022-09-09T05:00:08;99227.28;;;46.34;10.91
2563;BME280;1291;51.420;6.970;2022-09-09T05:02:38;99234.41;;;44.64;12.38
2563;BME280;1291;51.420;6.970;2022-09-09T05:05:05;99234.16;;;43.06;13.15
2563;BME280;1291;51.420;6.970;2022-09-09T05:07:31;99225.44;;;45.60;11.57
2563;BME280;1291;51.420;6.970;2022-09-09T05:09:57;99229.31;;;45.92;11.16
2563;BME280;1291;51.420;6.970;2022-09-09T05:12:23;99240.00;;;44.28;12.25
2563;BME280;1291;51.420;6.970;2022-09-09T05:14:51;99240.09;;;43.10;13.36
2563;BME280;1291;51.420;6.970;2022-09-09T05:17:17;99227.94;;;45.55;11.41
2563;BME280;1291;51.420;6.970;2022-09-09T05:19:43;99226.91;;;45.56;11.17
2563;BME280;1291;51.420;6.970;2022-09-09T05:22:09;99224.91;;;46.71;10.56
2563;BME280;1291;51.420;6.970;2022-09-09T05:24:37;99226.81;;;45.97;11.08
2563;BME280;1291;51.420;6.970;2022-09-09T05:27:03;99232.63;;;44.28;12.29
2563;BME280;1291;51.420;6.970;2022-09-09T05:29:29;99219.19;;;45.25;11.68
2563;BME280;1291;51.420;6.970;2022-09-09T05:31:54;99217.81;;;45.55;11.34
2563;BME280;1291;51.420;6.970;2022-09-09T05:34:20;99220.44;;;45.77;11.42
2563;BME280;1291;51.420;6.970;2022-09-09T05:36:46;99221.75;;;46.01;11.00
2563;BME280;1291;51.420;6.970;2022-09-09T05:39:12;99231.53;;;44.22;12.36
2563;BME280;1291;51.420;6.970;2022-09-09T05:41:37;99214.09;;;47.03;10.42
2563;BME280;1291;51.420;6.970;2022-09-09T05:44:03;99219.22;;;46.26;10.94
2563;BME280;1291;51.420;6.970;2022-09-09T05:46:28;99214.78;;;46.65;10.99
2563;BME280;1291;51.420;6.970;2022-09-09T05:48:54;99215.31;;;47.14;10.17
2563;BME280;1291;51.420;6.970;2022-09-09T05:51:22;99219.47;;;46.25;10.57
2563;BME280;1291;51.420;6.970;2022-09-09T05:53:49;99224.47;;;45.88;11.16
2563;BME280;1291;51.420;6.970;2022-09-09T05:56:23;99225.78;;;46.12;11.36
2563;BME280;1291;51.420;6.970;2022-09-09T05:58:51;99233.09;;;45.85;11.27
2563;BME280;1291;51.420;6.970;2022-09-09T06:01:20;99229.78;;;46.29;10.74
2563;BME280;1291;51.420;6.970;2022-09-09T06:03:48;99223.00;;;44.89;12.04
2563;BME280;1291;51.420;6.970;2022-09-09T06:06:20;99223.47;;;46.55;10.52
2563;BME280;1291;51.420;6.970;2022-09-09T06:08:53;99232.59;;;47.28;10.04
2563;BME280;1291;51.420;6.970;2022-09-09T06:11:28;99222.44;;;47.35;10.24
2563;BME280;1291;51.420;6.970;2022-09-09T06:14:00;99232.50;;;45.96;11.18
2563;BME280;1291;51.420;6.970;2022-09-09T06:16:27;99234.59;;;45.87;11.63
2563;BME280;1291;51.420;6.970;2022-09-09T06:18:54;99232.72;;;46.88;10.52
2563;BME280;1291;51.420;6.970;2022-09-09T06:21:27;99231.84;;;44.91;12.34
2563;BME280;1291;51.420;6.970;2022-09-09T06:23:52;99230.22;;;46.33;11.11
2563;BME280;1291;51.420;6.970;2022-09-09T06:26:19;99235.22;;;44.36;12.55
2563;BME280;1291;51.420;6.970;2022-09-09T06:28:46;99238.25;;;46.34;11.17
2563;BME280;1291;51.420;6.970;2022-09-09T06:31:14;99230.66;;;46.56;10.70
2563;BME280;1291;51.420;6.970;2022-09-09T06:33:41;99247.34;;;42.88;13.76
2563;BME280;1291;51.420;6.970;2022-09-09T06:36:11;99239.06;;;46.75;10.38
2563;BME280;1291;51.420;6.970;2022-09-09T06:38:40;99244.03;;;45.71;11.40
2563;BME280;1291;51.420;6.970;2022-09-09T06:41:05;99239.50;;;45.44;11.42
2563;BME280;1291;51.420;6.970;2022-09-09T06:43:31;99242.44;;;45.42;11.73
2563;BME280;1291;51.420;6.970;2022-09-09T06:46:04;99247.19;;;43.71;13.12
2563;BME280;1291;51.420;6.970;2022-09-09T06:48:30;99248.22;;;45.61;11.57
2563;BME280;1291;51.420;6.970;2022-09-09T06:53:30;99248.34;;;46.94;10.98
2563;BME280;1291;51.420;6.970;2022-09-09T06:55:59;99246.84;;;45.91;11.37
2563;BME280;1291;51.420;6.970;2022-09-09T06:58:25;99250.41;;;45.85;11.53
2563;BME280;1291;51.420;6.970;2022-09-09T07:00:51;99243.34;;;45.08;12.00
2563;BME280;1291;51.420;6.970;2022-09-09T07:03:16;99244.38;;;47.48;10.37
2563;BME280;1291;51.420;6.970;2022-09-09T07:05:42;99252.91;;;45.67;11.64
2563;BME280;1291;51.420;6.970;2022-09-09T07:08:10;99244.34;;;46.03;11.62
2563;BME280;1291;51.420;6.970;2022-09-09T07:10:35;99255.81;;;45.58;11.74
2563;BME280;1291;51.420;6.970;2022-09-09T07:13:01;99257.91;;;44.80;12.49
2563;BME280;1291;51.420;6.970;2022-09-09T07:15:27;99253.41;;;46.77;10.79
2563;BME280;1291;51.420;6.970;2022-09-09T07:17:52;99255.06;;;47.25;10.75
2563;BME280;1291;51.420;6.970;2022-09-09T07:20:19;99255.28;;;47.10;10.56
2563;BME280;1291;51.420;6.970;2022-09-09T07:22:45;99265.00;;;43.81;13.06
2563;BME280;1291;51.420;6.970;2022-09-09T07:25:11;99267.75;;;44.74;12.30
2563;BME280;1291;51.420;6.970;2022-09-09T07:27:36;99265.72;;;44.33;12.44
2563;BME280;1291;51.420;6.970;2022-09-09T07:30:02;99253.97;;;47.26;10.59
2563;BME280;1291;51.420;6.970;2022-09-09T07:32:28;99258.31;;;45.53;11.50
2563;BME280;1291;51.420;6.970;2022-09-09T07:34:55;99262.06;;;45.04;11.98
2563;BME280;1291;51.420;6.970;2022-09-09T07:37:23;99261.25;;;46.33;11.25
2563;BME280;1291;51.420;6.970;2022-09-09T07:39:49;99272.03;;;46.22;11.39
2563;BME280;1291;51.420;6.970;2022-09-09T07:42:16;99273.94;;;44.33;12.52
2563;BME280;1291;51.420;6.970;2022-09-09T07:44:45;99275.44;;;42.13;14.73
2563;BME280;1291;51.420;6.970;2022-09-09T07:47:10;99275.72;;;42.64;14.11
2563;BME280;1291;51.420;6.970;2022-09-09T07:49:36;99279.44;;;43.45;13.13
2563;BME280;1291;51.420;6.970;2022-09-09T07:52:01;99283.84;;;43.76;12.77
2563;BME280;1291;51.420;6.970;2022-09-09T07:54:27;99284.19;;;45.92;11.62
2563;BME280;1291;51.420;6.970;2022-09-09T07:56:52;99289.41;;;44.69;12.30
2563;BME280;1291;51.420;6.970;2022-09-09T07:59:18;99291.94;;;44.21;12.40
2563;BME280;1291;51.420;6.970;2022-09-09T08:01:48;99279.22;;;44.13;12.42
2563;BME280;1291;51.420;6.970;2022-09-09T08:04:17;99286.47;;;43.84;12.72
2563;BME280;1291;51.420;6.970;2022-09-09T08:06:49;99293.34;;;44.38;12.38
2563;BME280;1291;51.420;6.970;2022-09-09T08:09:15;99281.69;;;42.82;13.69
2563;BME280;1291;51.420;6.970;2022-09-09T08:11:42;99287.75;;;44.47;12.48
2563;BME280;1291;51.420;6.970;2022-09-09T08:14:08;99286.94;;;45.86;11.33
2563;BME280;1291;51.420;6.970;2022-09-09T08:16:48;99285.69;;;44.49;12.17
2563;BME280;1291;51.420;6.970;2022-09-09T08:19:14;99285.78;;;46.68;10.80
2563;BME280;1291;51.420;6.970;2022-09-09T08:21:42;99302.19;;;43.97;12.88
2563;BME280;1291;51.420;6.970;2022-09-09T08:24:08;99287.16;;;45.01;12.23
2563;BME280;1291;51.420;6.970;2022-09-09T08:26:38;99284.56;;;45.28;11.94
2563;BME280;1291;51.420;6.970;2022-09-09T08:29:06;99293.22;;;44.68;11.83
2563;BME280;1291;51.420;6.970;2022-09-09T08:31:35;99289.94;;;45.49;11.71
2563;BME280;1291;51.420;6.970;2022-09-09T08:34:01;99291.88;;;43.78;13.11
2563;BME280;1291;51.420;6.970;2022-09-09T08:36:31;99295.38;;;42.97;12.91
2563;BME280;1291;51.420;6.970;2022-09-09T08:38:58;99303.84;;;42.26;13.62
2563;BME280;1291;51.420;6.970;2022-09-09T08:44:50;99289.34;;;45.19;10.90
2563;BME280;1291;51.420;6.970;2022-09-09T08:50:26;99290.75;;;44.80;11.31
2563;BME280;1291;51.420;6.970;2022-09-09T08:53:17;99294.44;;;42.44;12.92
2563;BME280;1291;51.420;6.970;2022-09-09T08:55:53;99298.75;;;42.46;12.05
2563;BME280;1291;51.420;6.970;2022-09-09T08:58:23;99290.03;;;44.93;10.66
2563;BME280;1291;51.420;6.970;2022-09-09T09:07:03;99293.66;;;43.56;12.18
2563;BME280;1291;51.420;6.970;2022-09-09T09:09:24;99294.88;;;44.04;11.60
2563;BME280;1291;51.420;6.970;2022-09-09T09:11:58;99283.09;;;44.97;10.76
2563;BME280;1291;51.420;6.970;2022-09-09T09:14:28;99297.91;;;44.81;10.75
2563;BME280;1291;51.420;6.970;2022-09-09T09:17:04;99296.88;;;43.59;10.95
2563;BME280;1291;51.420;6.970;2022-09-09T09:19:33;99300.13;;;42.80;12.03
2563;BME280;1291;51.420;6.970;2022-09-09T09:27:40;99304.31;;;44.88;10.70
2563;BME280;1291;51.420;6.970;2022-09-09T09:30:13;99301.75;;;44.87;10.97
2563;BME280;1291;51.420;6.970;2022-09-09T09:32:42;99310.88;;;43.86;11.21
2563;BME280;1291;51.420;6.970;2022-09-09T09:35:13;99312.81;;;44.07;11.20
2563;BME280;1291;51.420;6.970;2022-09-09T09:37:42;99293.56;;;45.22;10.44
2563;BME280;1291;51.420;6.970;2022-09-09T09:40:17;99303.34;;;45.79;9.88
2563;BME280;1291;51.420;6.970;2022-09-09T09:42:50;99304.06;;;43.97;11.06
2563;BME280;1291;51.420;6.970;2022-09-09T09:48:09;99307.75;;;44.26;10.48
2563;BME280;1291;51.420;6.970;2022-09-09T09:50:35;99311.41;;;43.15;11.66
2563;BME280;1291;51.420;6.970;2022-09-09T09:53:22;99309.69;;;42.99;11.73
2563;BME280;1291;51.420;6.970;2022-09-09T09:56:04;99313.84;;;42.95;11.73
2563;BME280;1291;51.420;6.970;2022-09-09T09:58:31;99307.22;;;44.37;10.70
2563;BME280;1291;51.420;6.970;2022-09-09T10:00:59;99306.31;;;45.36;10.02
2563;BME280;1291;51.420;6.970;2022-09-09T10:03:31;99307.91;;;47.20;9.29
2563;BME280;1291;51.420;6.970;2022-09-09T10:05:57;99309.06;;;45.01;10.30
2563;BME280;1291;51.420;6.970;2022-09-09T10:08:26;99308.78;;;46.27;9.83
2563;BME280;1291;51.420;6.970;2022-09-09T10:11:15;99302.47;;;46.47;9.37
2563;BME280;1291;51.420;6.970;2022-09-09T10:19:15;99300.94;;;46.11;9.94
2563;BME280;1291;51.420;6.970;2022-09-09T10:24:36;99303.16;;;45.04;10.08
2563;BME280;1291;51.420;6.970;2022-09-09T10:27:32;99298.78;;;45.45;9.80
2563;BME280;1291;51.420;6.970;2022-09-09T10:30:16;99300.03;;;42.74;11.12
2563;BME280;1291;51.420;6.970;2022-09-09T10:33:08;99303.59;;;42.36;11.37
2563;BME280;1291;51.420;6.970;2022-09-09T10:35:53;99309.31;;;40.75;12.72
2563;BME280;1291;51.420;6.970;2022-09-09T10:38:45;99300.94;;;39.52;13.75
2563;BME280;1291;51.420;6.970;2022-09-09T10:53:03;99297.28;;;43.41;11.45
2563;BME280;1291;51.420;6.970;2022-09-09T10:55:39;99302.69;;;40.53;13.14
2563;BME280;1291;51.420;6.970;2022-09-09T10:58:18;99287.66;;;41.94;11.80
2563;BME280;1291;51.420;6.970;2022-09-09T11:00:54;99298.22;;;40.11;13.61
2563;BME280;1291;51.420;6.970;2022-09-09T11:03:29;99283.75;;;39.94;13.56
2563;BME280;1291;51.420;6.970;2022-09-09T11:08:32;99285.25;;;41.59;12.97
2563;BME280;1291;51.420;6.970;2022-09-09T11:11:21;99292.59;;;39.96;13.77
2563;BME280;1291;51.420;6.970;2022-09-09T11:16:52;99289.50;;;39.91;14.12
2563;BME280;1291;51.420;6.970;2022-09-09T11:21:52;99288.19;;;40.20;13.57
2563;BME280;1291;51.420;6.970;2022-09-09T11:24:26;99260.75;;;44.00;10.96
2563;BME280;1291;51.420;6.970;2022-09-09T11:29:50;99266.03;;;45.30;10.31
2563;BME280;1291;51.420;6.970;2022-09-09T11:40:30;99279.22;;;40.68;13.12
2563;BME280;1291;51.420;6.970;2022-09-09T11:45:52;99266.00;;;42.46;11.61
2563;BME280;1291;51.420;6.970;2022-09-09T11:48:33;99274.50;;;43.86;10.62
2563;BME280;1291;51.420;6.970;2022-09-09T11:51:32;99280.13;;;44.92;10.21
2563;BME280;1291;51.420;6.970;2022-09-09T11:54:21;99276.31;;;42.74;13.01
2563;BME280;1291;51.420;6.970;2022-09-09T11:56:48;99274.69;;;43.33;12.30
2563;BME280;1291;51.420;6.970;2022-09-09T12:01:54;99294.34;;;44.52;11.60
2563;BME280;1291;51.420;6.970;2022-09-09T12:06:56;99273.34;;;45.64;11.19
2563;BME280;1291;51.420;6.970;2022-09-09T12:17:36;99277.28;;;44.85;11.64
2563;BME280;1291;51.420;6.970;2022-09-09T12:20:10;99277.88;;;45.92;10.61
2563;BME280;1291;51.420;6.970;2022-09-09T12:25:33;99289.28;;;45.95;10.05
2563;BME280;1291;51.420;6.970;2022-09-09T12:28:18;99287.66;;;45.59;10.63
2563;BME280;1291;51.420;6.970;2022-09-09T12:31:01;99289.72;;;44.53;11.24
2563;BME280;1291;51.420;6.970;2022-09-09T12:33:35;99276.06;;;46.72;10.05
2563;BME280;1291;51.420;6.970;2022-09-09T12:36:01;99279.22;;;46.69;10.09
2563;BME280;1291;51.420;6.970;2022-09-09T12:38:40;99278.91;;;42.67;12.53
2563;BME280;1291;51.420;6.970;2022-09-09T12:41:15;99282.38;;;43.74;12.04
2563;BME280;1291;51.420;6.970;2022-09-09T12:43:44;99276.34;;;45.28;11.24
2563;BME280;1291;51.420;6.970;2022-09-09T12:48:46;99272.97;;;45.74;10.62
2563;BME280;1291;51.420;6.970;2022-09-09T12:51:24;99267.44;;;44.34;11.70
2563;BME280;1291;51.420;6.970;2022-09-09T12:53:51;99265.50;;;45.61;11.06
2563;BME280;1291;51.420;6.970;2022-09-09T12:56:21;99259.69;;;44.94;11.26
2563;BME280;1291;51.420;6.970;2022-09-09T12:58:49;99252.63;;;46.50;9.79
2563;BME280;1291;51.420;6.970;2022-09-09T13:01:32;99249.63;;;46.85;9.98
2563;BME280;1291;51.420;6.970;2022-09-09T13:03:59;99255.81;;;44.32;11.63
2563;BME280;1291;51.420;6.970;2022-09-09T13:06:26;99262.38;;;44.59;11.56
2563;BME280;1291;51.420;6.970;2022-09-09T13:08:58;99271.19;;;45.18;11.31
2563;BME280;1291;51.420;6.970;2022-09-09T13:13:57;99271.31;;;45.38;11.07
2563;BME280;1291;51.420;6.970;2022-09-09T13:16:29;99288.22;;;43.92;11.97
2563;BME280;1291;51.420;6.970;2022-09-09T13:19:18;99269.97;;;45.20;10.99
2563;BME280;1291;51.420;6.970;2022-09-09T13:21:43;99276.41;;;45.41;10.97
2563;BME280;1291;51.420;6.970;2022-09-09T13:27:03;99277.75;;;46.67;10.09
2563;BME280;1291;51.420;6.970;2022-09-09T13:29:31;99269.50;;;46.87;10.21
2563;BME280;1291;51.420;6.970;2022-09-09T13:32:05;99269.09;;;46.50;10.65
2563;BME280;1291;51.420;6.970;2022-09-09T13:34:35;99265.19;;;45.84;10.82
2563;BME280;1291;51.420;6.970;2022-09-09T13:37:02;99259.16;;;46.62;10.64
2563;BME280;1291;51.420;6.970;2022-09-09T13:39:34;99266.34;;;46.56;10.49
2563;BME280;1291;51.420;6.970;2022-09-09T13:42:02;99277.69;;;44.32;12.08
2563;BME280;1291;51.420;6.970;2022-09-09T13:44:34;99265.25;;;46.17;10.75
2563;BME280;1291;51.420;6.970;2022-09-09T13:49:30;99275.41;;;45.14;11.66
2563;BME280;1291;51.420;6.970;2022-09-09T13:52:13;99283.84;;;43.61;12.83
2563;BME280;1291;51.420;6.970;2022-09-09T13:54:40;99274.13;;;45.10;11.85
2563;BME280;1291;51.420;6.970;2022-09-09T13:57:20;99268.31;;;44.63;11.97
2563;BME280;1291;51.420;6.970;2022-09-09T13:59:46;99265.09;;;43.95;12.99
2563;BME280;1291;51.420;6.970;2022-09-09T14:02:13;99253.94;;;45.24;11.59
2563;BME280;1291;51.420;6.970;2022-09-09T14:04:38;99272.16;;;39.41;17.23
2563;BME280;1291;51.420;6.970;2022-09-09T14:07:09;99268.16;;;40.53;16.27
2563;BME280;1291;51.420;6.970;2022-09-09T14:09:36;99258.47;;;40.51;16.50
2563;BME280;1291;51.420;6.970;2022-09-09T14:12:02;99226.84;;;46.17;11.63
2563;BME280;1291;51.420;6.970;2022-09-09T14:14:27;99252.25;;;43.08;13.48
2563;BME280;1291;51.420;6.970;2022-09-09T14:16:56;99226.38;;;45.94;11.66
2563;BME280;1291;51.420;6.970;2022-09-09T14:19:24;99230.16;;;46.93;10.29
2563;BME280;1291;51.420;6.970;2022-09-09T14:21:50;99243.31;;;45.43;11.62
2563;BME280;1291;51.420;6.970;2022-09-09T14:24:15;99242.31;;;45.64;11.38
2563;BME280;1291;51.420;6.970;2022-09-09T14:26:41;99246.56;;;43.90;13.69
2563;BME280;1291;51.420;6.970;2022-09-09T14:29:07;99241.22;;;45.03;12.87
2563;BME280;1291;51.420;6.970;2022-09-09T14:31:32;99248.00;;;44.51;13.77
2563;BME280;1291;51.420;6.970;2022-09-09T14:33:58;99250.19;;;47.27;10.78
2563;BME280;1291;51.420;6.970;2022-09-09T14:36:24;99249.94;;;47.80;10.96
2563;BME280;1291;51.420;6.970;2022-09-09T14:38:50;99261.59;;;45.90;12.32
2563;BME280;1291;51.420;6.970;2022-09-09T14:41:17;99248.16;;;47.47;11.47
2563;BME280;1291;51.420;6.970;2022-09-09T14:43:44;99240.78;;;46.23;12.84
2563;BME280;1291;51.420;6.970;2022-09-09T14:46:14;99230.00;;;46.81;12.13
2563;BME280;1291;51.420;6.970;2022-09-09T14:48:40;99236.13;;;45.00;12.87
2563;BME280;1291;51.420;6.970;2022-09-09T14:51:21;99237.81;;;46.31;11.78
2563;BME280;1291;51.420;6.970;2022-09-09T14:53:54;99257.91;;;46.51;10.97
2563;BME280;1291;51.420;6.970;2022-09-09T14:56:22;99294.50;;;42.82;14.02
2563;BME280;1291;51.420;6.970;2022-09-09T14:58:48;99294.91;;;44.26;12.54
2563;BME280;1291;51.420;6.970;2022-09-09T15:01:16;99301.41;;;44.90;12.14
2563;BME280;1291;51.420;6.970;2022-09-09T15:03:48;99307.56;;;44.27;12.16
2563;BME280;1291;51.420;6.970;2022-09-09T15:06:14;99297.13;;;44.16;12.27
2563;BME280;1291;51.420;6.970;2022-09-09T15:08:42;99291.09;;;45.27;11.24
2563;BME280;1291;51.420;6.970;2022-09-09T15:11:09;99294.53;;;44.79;11.52
2563;BME280;1291;51.420;6.970;2022-09-09T15:13:36;99286.88;;;45.72;10.87
2563;BME280;1291;51.420;6.970;2022-09-09T15:16:18;99281.44;;;45.31;11.41
2563;BME280;1291;51.420;6.970;2022-09-09T15:18:45;99277.59;;;45.73;11.19
2563;BME280;1291;51.420;6.970;2022-09-09T15:21:16;99281.88;;;45.41;11.18
2563;BME280;1291;51.420;6.970;2022-09-09T15:23:43;99281.22;;;45.81;11.06
2563;BME280;1291;51.420;6.970;2022-09-09T15:26:09;99276.75;;;45.66;11.11
2563;BME280;1291;51.420;6.970;2022-09-09T15:28:36;99280.97;;;44.92;11.57
2563;BME280;1291;51.420;6.970;2022-09-09T15:31:22;99278.50;;;44.26;12.13
2563;BME280;1291;51.420;6.970;2022-09-09T15:33:54;99275.69;;;44.41;12.34
2563;BME280;1291;51.420;6.970;2022-09-09T15:36:31;99266.97;;;45.15;11.60
2563;BME280;1291;51.420;6.970;2022-09-09T15:38:58;99269.66;;;43.21;13.26
2563;BME280;1291;51.420;6.970;2022-09-09T15:41:24;99272.09;;;44.62;12.33
2563;BME280;1291;51.420;6.970;2022-09-09T15:43:55;99265.03;;;44.74;12.13
2563;BME280;1291;51.420;6.970;2022-09-09T15:46:50;99270.25;;;44.04;12.68
2563;BME280;1291;51.420;6.970;2022-09-09T15:49:23;99262.47;;;44.23;12.75
2563;BME280;1291;51.420;6.970;2022-09-09T15:52:01;99265.41;;;44.71;12.47
2563;BME280;1291;51.420;6.970;2022-09-09T15:54:31;99267.13;;;44.22;12.47
2563;BME280;1291;51.420;6.970;2022-09-09T15:56:59;99267.16;;;44.29;12.73